Bondville, IL (61815)

8:53 AM CST on January 25, 2015 (GMT -0600)
Champaign | Change Station
CLOSE
Current Station
Personal Weather Station
Location: Champaign, IL
Elevation: 738 ft
Nearby Weather Stations
Active Advisory: Special Statement

Elev 738 ft 40.10 °N, 88.28 °W | Updated 8 seconds ago

Rain
Rain
35.8 °F
Feels Like 36 °F
N
0.9
Wind Variable Wind from SW
Gusts 2.5 mph

Today
High -- | Low -- °F
--% Chance of Precip.
Yesterday
High -- | Low -- °F
Precip. -- in
7:08 AM 5:03 PM
Waxing Crescent, 33% visible
Pressure 29.63 in
Visibility 6.0 miles
Clouds Mostly Cloudy 3500 ft
Overcast 4200 ft
Windchill 36 °F
Dew Point 33 °F
Humidity 89%
Rainfall 0.05 in
Snow Depth Not available.
UV 0.0 out of 12
Pollen .10 out of 12
Air Quality Not available.
Flu Activity Not available.
METAR KCMI 251353Z 06006KT 6SM -RA BR BKN035 OVC042 02/00 A2962 RMK AO2 SLP034 P0001 T00170000

More Conditions Fewer Conditions

Pressure 29.63 in
Visibility 6.0 miles
Clouds Mostly Cloudy 3500 ft
Overcast 4200 ft
Windchill 36 °F
Dew Point 33 °F
Humidity 89%
Rainfall 0.05 in
Snow Depth Not available.
UV 0.0 out of 12
Pollen .10 out of 12
Air Quality Not available.
Flu Activity Not available.
METAR KCMI 251353Z 06006KT 6SM -RA BR BKN035 OVC042 02/00 A2962 RMK AO2 SLP034 P0001 T00170000

More Conditions Fewer Conditions

10-Day Weather Forecast

Almanac

Astronomy

Jan. 25, 2015 Rise Set
Actual Time
Civil Twilight
Nautical Twilight
Astronomical Twilight
Moon
Length of Visible Light
Length of Day
Tomorrow will be .
, % of the Moon is Illuminated

Today's Extremes

State Highs State Lows

Community

WunderPhotos

Upload Photos

1,789,899 photos uploaded!

WunderBlogs® & News

Nearby

Air Quality

  Air Quality AQ Index Pollutant
Not available.

Snow Depth

Station Depth Elevation

Earthquake Activity

City Distance Mag. Time & Date
Minimum magnitude displayed is 2.5.

Coastal Water Temperatures

Place Temperature

Nearby Weather Stations